Time;durP1;ratioP1;P1;durP2;ratioP2;P2;SDS_P1;SDS_P2;PMS_P1;PMS_P2;Temp;Humidity;BMP_temperature;BMP_pressure;BME280_temperature;BME280_humidity;BME280_pressure;Samples;Min_cycle;Max_cycle;Signal;HPM_P1;HPM_P2
2022/11/19 00:01:01;;;;;;;33.13;20.13;;;;;;;5.90;100.00;100650.16;5013249;28;20477;-57
2022/11/19 00:03:30;;;;;;;33.47;20.92;;;;;;;5.69;100.00;100650.25;5012857;28;20057;-57
2022/11/19 00:06:02;;;;;;;31.02;19.60;;;;;;;5.72;100.00;100655.22;5017177;28;20044;-57
2022/11/19 00:08:28;;;;;;;31.88;20.65;;;;;;;5.59;100.00;100649.38;5020250;28;20061;-57
2022/11/19 00:10:53;;;;;;;35.42;20.92;;;;;;;5.59;100.00;100657.28;5016617;28;20141;-59
2022/11/19 00:13:18;;;;;;;31.98;20.25;;;;;;;5.57;100.00;100656.59;5021717;28;20041;-58
2022/11/19 00:15:44;;;;;;;31.02;20.15;;;;;;;5.51;100.00;100660.56;5016989;28;20026;-59
2022/11/19 00:18:09;;;;;;;30.35;19.48;;;;;;;5.42;100.00;100664.81;5022068;28;20566;-58
2022/11/19 00:20:34;;;;;;;31.13;20.38;;;;;;;5.39;100.00;100671.16;5014669;28;20656;-57
2022/11/19 00:23:00;;;;;;;33.63;20.70;;;;;;;5.38;100.00;100668.69;5019052;28;20037;-57
2022/11/19 00:25:28;;;;;;;30.48;20.42;;;;;;;5.36;100.00;100662.72;5007733;28;20037;-59
2022/11/19 00:27:56;;;;;;;31.77;20.60;;;;;;;5.36;100.00;100670.59;5021336;28;20034;-58
2022/11/19 00:30:21;;;;;;;30.52;20.13;;;;;;;5.39;100.00;100675.59;5015582;28;20041;-59
2022/11/19 00:32:46;;;;;;;32.25;20.38;;;;;;;5.42;100.00;100675.34;5006401;28;20037;-56
2022/11/19 00:35:12;;;;;;;31.48;20.27;;;;;;;5.37;100.00;100674.88;5014847;28;20034;-59
2022/11/19 00:37:38;;;;;;;32.13;21.17;;;;;;;5.35;100.00;100674.19;5013937;28;20172;-58
2022/11/19 00:40:06;;;;;;;32.40;21.13;;;;;;;5.35;100.00;100679.47;5020644;28;20301;-59
2022/11/19 00:42:32;;;;;;;31.25;19.83;;;;;;;5.39;100.00;100675.59;5020709;28;20033;-59
2022/11/19 00:44:57;;;;;;;31.83;19.83;;;;;;;5.38;100.00;100676.59;5020866;28;20084;-60
2022/11/19 00:47:22;;;;;;;31.92;20.35;;;;;;;5.29;100.00;100690.50;5019140;28;20034;-57
2022/11/19 00:49:47;;;;;;;31.25;20.05;;;;;;;5.25;100.00;100685.50;5018919;28;20037;-58
2022/11/19 00:52:13;;;;;;;31.33;19.45;;;;;;;5.27;100.00;100693.25;5018121;28;20033;-59
2022/11/19 00:54:38;;;;;;;30.08;19.17;;;;;;;5.23;100.00;100687.41;5019714;28;20034;-58
2022/11/19 00:57:03;;;;;;;29.65;19.50;;;;;;;5.13;100.00;100683.09;5007211;28;20068;-57
2022/11/19 00:59:29;;;;;;;29.75;18.85;;;;;;;5.12;100.00;100684.88;5018591;28;20841;-57
2022/11/19 01:01:54;;;;;;;29.92;19.10;;;;;;;5.13;100.00;100691.78;5015572;28;20033;-57
2022/11/19 01:04:19;;;;;;;28.10;18.48;;;;;;;5.04;100.00;100697.84;5016162;28;20034;-58
2022/11/19 01:06:45;;;;;;;29.25;19.20;;;;;;;5.08;100.00;100699.25;5012246;28;20127;-57
2022/11/19 01:09:10;;;;;;;31.45;20.35;;;;;;;5.01;100.00;100692.81;5009965;28;20534;-58
2022/11/19 01:11:36;;;;;;;32.97;20.95;;;;;;;5.00;100.00;100696.41;5025305;28;20037;-57
2022/11/19 01:14:04;;;;;;;32.00;20.85;;;;;;;5.04;100.00;100703.09;5018809;28;20384;-60
2022/11/19 01:16:35;;;;;;;34.38;20.60;;;;;;;5.05;100.00;100704.75;5022062;28;20048;-57
2022/11/19 01:19:02;;;;;;;32.75;21.42;;;;;;;4.96;100.00;100707.19;5017959;28;20049;-57
2022/11/19 01:21:29;;;;;;;31.73;20.77;;;;;;;4.92;100.00;100705.78;5023159;28;20060;-57
2022/11/19 01:23:55;;;;;;;33.22;20.58;;;;;;;4.89;100.00;100711.28;5023595;28;20056;-58
2022/11/19 01:26:21;;;;;;;33.95;22.23;;;;;;;4.78;100.00;100711.34;5016617;28;20429;-58
2022/11/19 01:28:47;;;;;;;33.58;21.40;;;;;;;4.80;100.00;100722.56;5016597;28;20026;-57
2022/11/19 01:31:19;;;;;;;35.40;22.77;;;;;;;4.78;100.00;100724.50;5020799;28;20053;-60
2022/11/19 01:33:45;;;;;;;34.88;21.83;;;;;;;4.80;100.00;100731.25;5017523;28;20473;-58
2022/11/19 01:36:21;;;;;;;34.53;22.50;;;;;;;4.76;100.00;100723.75;5021882;28;20029;-58
2022/11/19 01:38:49;;;;;;;32.35;21.33;;;;;;;4.81;100.00;100725.06;5016046;28;20053;-59
2022/11/19 01:41:19;;;;;;;33.15;20.83;;;;;;;4.85;100.00;100730.91;5022456;28;20095;-59
2022/11/19 01:43:57;;;;;;;32.35;20.45;;;;;;;4.78;100.00;100735.81;5023180;28;20121;-57
2022/11/19 01:46:25;;;;;;;32.47;21.27;;;;;;;4.70;100.00;100733.81;5018448;28;20065;-57
2022/11/19 01:49:12;;;;;;;34.35;20.85;;;;;;;4.70;100.00;100739.06;5023305;28;20044;-58
2022/11/19 01:51:42;;;;;;;33.15;21.95;;;;;;;4.66;100.00;100739.44;5009822;28;20045;-58
2022/11/19 01:54:24;;;;;;;38.78;22.70;;;;;;;4.75;100.00;100740.50;5024201;28;20045;-59
2022/11/19 01:56:50;;;;;;;37.90;21.80;;;;;;;4.70;100.00;100744.31;5016123;28;20041;-58
2022/11/19 01:59:17;;;;;;;30.98;20.83;;;;;;;4.62;100.00;100745.91;5014122;28;20025;-58
2022/11/19 02:01:43;;;;;;;30.63;21.17;;;;;;;4.59;100.00;100746.97;5021972;28;20980;-56
2022/11/19 02:04:10;;;;;;;33.05;20.98;;;;;;;4.62;100.00;100749.38;5022690;28;20033;-57
2022/11/19 02:06:35;;;;;;;29.08;19.73;;;;;;;4.58;100.00;100742.69;5017408;28;20033;-58
2022/11/19 02:09:00;;;;;;;28.60;19.25;;;;;;;4.56;100.00;100752.50;5024529;28;20432;-58
2022/11/19 02:12:03;;;;;;;28.10;19.95;;;;;;;4.62;100.00;100752.00;5018639;28;20064;-58
2022/11/19 02:14:43;;;;;;;30.63;20.88;;;;;;;4.59;100.00;100757.47;5016392;28;20021;-57
2022/11/19 02:17:18;;;;;;;30.75;20.98;;;;;;;4.48;100.00;100736.53;5016178;28;20033;-57
2022/11/19 02:20:15;;;;;;;30.98;21.30;;;;;;;4.59;100.00;100757.47;5020965;28;20037;-58
2022/11/19 02:22:43;;;;;;;29.02;20.15;;;;;;;4.58;100.00;100755.81;5020060;28;20033;-57
2022/11/19 02:25:30;;;;;;;30.33;19.58;;;;;;;4.58;100.00;100750.56;5010828;28;20471;-57
2022/11/19 02:28:23;;;;;;;28.63;17.58;;;;;;;4.70;100.00;100760.06;5017347;28;20540;-57
2022/11/19 02:30:58;;;;;;;24.42;16.73;;;;;;;4.40;100.00;100756.34;5015283;28;20038;-57
2022/11/19 02:33:56;;;;;;;26.15;16.40;;;;;;;4.44;100.00;100759.56;5020122;28;20049;-57
2022/11/19 02:36:27;;;;;;;25.42;16.48;;;;;;;4.29;100.00;100751.13;5020347;28;20098;-57
2022/11/19 02:39:06;;;;;;;26.25;16.98;;;;;;;4.32;100.00;100761.38;5013933;28;20553;-56
2022/11/19 02:41:42;;;;;;;23.45;16.13;;;;;;;4.23;100.00;100756.84;5005983;28;20418;-57
2022/11/19 02:47:16;;;;;;;23.85;15.77;;;;;;;4.19;100.00;100760.69;5018018;28;20571;-58
2022/11/19 02:49:46;;;;;;;23.95;14.93;;;;;;;4.12;100.00;100761.19;5022319;28;20401;-58
2022/11/19 02:52:16;;;;;;;22.23;14.35;;;;;;;4.08;100.00;100775.50;5019024;28;20041;-59
2022/11/19 02:54:42;;;;;;;20.85;14.10;;;;;;;4.02;100.00;100775.97;5021854;28;20068;-59
2022/11/19 02:57:10;;;;;;;21.30;14.55;;;;;;;4.02;100.00;100778.59;5011706;28;20134;-60
2022/11/19 03:05:24;;;;;;;22.40;15.43;;;;;;;3.93;100.00;100781.94;5014163;28;20148;-59
2022/11/19 03:07:49;;;;;;;21.50;15.05;;;;;;;3.97;99.87;100786.00;5010755;28;20041;-57
2022/11/19 03:10:19;;;;;;;23.58;15.00;;;;;;;3.87;100.00;100784.09;5021036;28;20037;-57
2022/11/19 03:12:53;;;;;;;24.45;15.32;;;;;;;3.90;100.00;100789.09;5022070;28;20114;-59
2022/11/19 03:18:32;;;;;;;22.02;14.55;;;;;;;3.79;99.84;100796.97;5020053;28;20103;-57
2022/11/19 03:21:08;;;;;;;22.63;15.27;;;;;;;3.77;100.00;100788.38;5019262;28;20045;-57
2022/11/19 03:23:41;;;;;;;22.30;15.48;;;;;;;3.76;100.00;100786.72;5013214;28;20374;-57
2022/11/19 03:26:20;;;;;;;22.80;16.25;;;;;;;3.75;100.00;100785.06;5019111;28;20516;-58
2022/11/19 03:28:46;;;;;;;22.38;15.93;;;;;;;3.78;100.00;100790.03;5019074;28;20113;-57
2022/11/19 03:31:14;;;;;;;24.40;15.75;;;;;;;3.77;100.00;100796.25;5018947;28;21010;-57
2022/11/19 03:33:43;;;;;;;22.05;15.30;;;;;;;3.69;99.74;100798.63;5014655;28;20049;-58
2022/11/19 03:36:17;;;;;;;25.40;16.10;;;;;;;3.74;100.00;100799.09;5017704;28;20033;-57
2022/11/19 03:38:48;;;;;;;23.38;16.10;;;;;;;3.62;100.00;100801.69;5012920;28;20057;-59
2022/11/19 03:41:17;;;;;;;23.55;16.55;;;;;;;3.57;99.54;100793.38;5018440;28;20495;-59
2022/11/19 03:43:47;;;;;;;24.40;16.67;;;;;;;3.49;100.00;100785.22;5018038;28;20102;-58
2022/11/19 03:46:17;;;;;;;24.42;16.50;;;;;;;3.55;100.00;100797.88;5016467;28;20400;-59
2022/11/19 03:48:46;;;;;;;24.95;17.05;;;;;;;3.50;100.00;100806.09;5015312;28;20044;-57
2022/11/19 03:51:16;;;;;;;27.55;18.10;;;;;;;3.43;100.00;100790.94;5020666;28;20048;-58
2022/11/19 03:53:41;;;;;;;27.98;18.58;;;;;;;3.50;100.00;100802.63;5022045;28;20083;-57
2022/11/19 03:56:10;;;;;;;27.23;17.48;;;;;;;3.50;100.00;100808.72;5018868;28;20487;-58
2022/11/19 03:58:42;;;;;;;28.60;18.70;;;;;;;3.44;100.00;100808.34;5007817;28;20037;-57
2022/11/19 04:01:08;;;;;;;27.38;18.25;;;;;;;3.41;100.00;100808.59;5019396;28;20061;-58
2022/11/19 04:03:33;;;;;;;27.05;17.98;;;;;;;3.45;100.00;100812.66;5021799;28;20113;-57
2022/11/19 04:05:59;;;;;;;26.50;19.15;;;;;;;3.53;100.00;100812.91;5014604;28;21096;-59
2022/11/19 04:08:24;;;;;;;27.65;18.73;;;;;;;3.51;100.00;100814.81;5022178;28;20112;-58
2022/11/19 04:10:49;;;;;;;29.05;19.33;;;;;;;3.52;100.00;100816.47;5019449;28;20044;-58
2022/11/19 04:13:15;;;;;;;27.02;18.10;;;;;;;3.54;99.56;100814.56;5013403;28;20030;-58
2022/11/19 04:15:40;;;;;;;27.17;18.52;;;;;;;3.53;98.60;100812.91;5016625;28;20037;-58
2022/11/19 04:18:05;;;;;;;28.52;19.05;;;;;;;3.44;99.37;100813.59;5016800;28;20052;-57
2022/11/19 04:20:30;;;;;;;29.10;19.63;;;;;;;3.48;100.00;100822.91;5018373;28;20030;-57
2022/11/19 04:22:56;;;;;;;27.75;18.38;;;;;;;3.46;99.93;100824.81;5021886;28;20104;-58
2022/11/19 04:25:21;;;;;;;28.30;19.40;;;;;;;3.44;100.00;100834.56;5019202;28;20030;-59
2022/11/19 04:27:46;;;;;;;28.83;19.42;;;;;;;3.39;99.96;100837.53;5016506;28;20042;-58
2022/11/19 04:30:13;;;;;;;29.55;19.70;;;;;;;3.38;99.06;100840.25;5022163;28;20029;-56
2022/11/19 04:32:38;;;;;;;29.55;19.90;;;;;;;3.27;96.78;100844.53;5021786;28;20924;-57
2022/11/19 04:35:04;;;;;;;30.73;20.33;;;;;;;3.25;98.08;100846.41;5020600;28;20037;-60
2022/11/19 04:37:29;;;;;;;30.77;20.98;;;;;;;3.13;97.89;100847.31;5018073;28;20042;-58
2022/11/19 04:39:54;;;;;;;30.73;20.83;;;;;;;3.19;97.90;100857.34;5014468;28;20042;-58
2022/11/19 04:42:20;;;;;;;32.22;21.05;;;;;;;3.17;98.03;100854.88;5021616;28;20041;-57
2022/11/19 04:44:45;;;;;;;30.98;21.05;;;;;;;3.20;97.29;100853.78;5012204;28;20025;-57
2022/11/19 04:47:10;;;;;;;32.00;21.58;;;;;;;3.14;97.93;100849.84;5024448;28;20495;-57
2022/11/19 04:49:36;;;;;;;31.50;20.83;;;;;;;3.19;96.95;100852.09;5015867;28;20508;-58
2022/11/19 04:52:01;;;;;;;32.85;21.85;;;;;;;3.16;98.05;100847.94;5022965;28;20119;-58
2022/11/19 04:54:26;;;;;;;30.27;20.73;;;;;;;3.18;97.73;100856.53;5014651;28;20037;-57
2022/11/19 04:56:51;;;;;;;30.52;21.00;;;;;;;3.04;97.33;100854.06;5016935;28;20132;-58
2022/11/19 04:59:17;;;;;;;31.90;21.02;;;;;;;3.11;98.37;100864.94;5017263;28;20061;-58
2022/11/19 05:01:42;;;;;;;29.83;21.05;;;;;;;3.11;98.97;100870.19;5011249;28;20160;-58
2022/11/19 05:04:08;;;;;;;30.77;21.35;;;;;;;3.12;99.08;100864.00;5019464;28;20038;-59
2022/11/19 05:06:34;;;;;;;32.67;21.48;;;;;;;3.13;98.60;100863.88;5020635;28;20404;-57
2022/11/19 05:08:59;;;;;;;30.63;21.10;;;;;;;3.18;96.52;100866.16;5018599;28;20049;-57
2022/11/19 05:11:25;;;;;;;30.70;21.08;;;;;;;3.17;95.69;100872.34;5022960;28;20041;-57
2022/11/19 05:13:50;;;;;;;31.30;19.38;;;;;;;3.00;96.52;100890.13;5023728;28;20037;-58
2022/11/19 05:16:16;;;;;;;33.88;22.58;;;;;;;2.99;97.91;100891.09;5020770;28;20083;-57
2022/11/19 05:18:41;;;;;;;32.38;21.63;;;;;;;2.98;97.28;100878.94;5023739;28;20033;-57
2022/11/19 05:21:06;;;;;;;33.08;22.35;;;;;;;2.93;98.24;100888.91;5019951;28;20033;-58
2022/11/19 05:23:31;;;;;;;33.70;22.70;;;;;;;3.00;98.63;100890.13;5019199;28;20041;-57
2022/11/19 05:25:57;;;;;;;32.92;22.27;;;;;;;2.99;97.30;100892.84;5021113;28;20056;-57
2022/11/19 05:28:22;;;;;;;32.85;21.88;;;;;;;2.99;97.47;100893.72;5014213;28;20052;-58
2022/11/19 05:30:47;;;;;;;34.22;22.98;;;;;;;2.93;98.42;100891.53;5010743;28;20037;-58
2022/11/19 05:33:13;;;;;;;36.20;23.77;;;;;;;2.92;96.81;100882.81;5023791;28;20037;-58
2022/11/19 05:35:38;;;;;;;35.92;24.38;;;;;;;2.89;98.42;100903.16;5021258;28;20049;-57
2022/11/19 05:38:03;;;;;;;33.35;23.35;;;;;;;2.92;98.13;100892.47;5022056;28;20045;-57
2022/11/19 05:40:29;;;;;;;33.83;23.70;;;;;;;3.00;97.30;100894.56;5023574;28;20112;-59
2022/11/19 05:42:54;;;;;;;34.22;23.65;;;;;;;2.96;98.14;100902.63;5024745;28;20165;-57
2022/11/19 05:45:19;;;;;;;33.58;23.73;;;;;;;2.96;96.73;100899.16;5015046;28;20170;-60
2022/11/19 05:47:45;;;;;;;34.25;21.35;;;;;;;2.91;96.57;100902.09;5020438;28;20072;-57
2022/11/19 05:50:10;;;;;;;36.00;23.17;;;;;;;2.91;98.28;100901.28;5015790;28;20064;-58
2022/11/19 05:52:36;;;;;;;33.50;23.92;;;;;;;2.91;96.21;100906.53;5018391;28;20432;-58
2022/11/19 05:55:01;;;;;;;32.78;23.35;;;;;;;2.81;96.25;100920.25;5022805;28;20049;-58
2022/11/19 05:57:27;;;;;;;33.50;24.05;;;;;;;2.79;96.92;100913.47;5010200;28;20617;-57
2022/11/19 05:59:52;;;;;;;35.22;25.02;;;;;;;2.78;97.86;100917.03;5023284;28;20044;-57
2022/11/19 06:02:17;;;;;;;34.33;23.98;;;;;;;2.84;97.58;100927.06;5014286;28;20613;-58
2022/11/19 06:04:43;;;;;;;33.83;23.75;;;;;;;2.87;97.41;100931.25;5022844;28;20179;-58
2022/11/19 06:07:09;;;;;;;35.42;24.88;;;;;;;2.88;96.76;100930.31;5014607;28;20088;-59
2022/11/19 06:09:34;;;;;;;35.60;24.45;;;;;;;2.88;96.39;100932.94;5020725;28;20549;-56
2022/11/19 06:11:59;;;;;;;35.92;24.88;;;;;;;2.86;95.44;100932.22;5021633;28;20124;-57
2022/11/19 06:14:26;;;;;;;35.63;25.08;;;;;;;2.83;96.03;100931.47;5022731;28;20030;-57
2022/11/19 06:16:57;;;;;;;34.72;25.05;;;;;;;2.80;96.04;100931.69;5018362;28;20037;-56
2022/11/19 06:19:23;;;;;;;35.40;24.77;;;;;;;2.84;95.60;100942.78;5018864;28;20045;-59
2022/11/19 06:21:49;;;;;;;34.03;24.75;;;;;;;2.88;94.00;100943.41;5018345;28;20026;-59
2022/11/19 06:24:15;;;;;;;35.10;25.35;;;;;;;2.73;93.87;100940.94;5023982;28;20053;-57
2022/11/19 06:26:41;;;;;;;36.92;26.50;;;;;;;2.67;94.97;100952.66;5020409;28;20497;-57
2022/11/19 06:29:06;;;;;;;38.42;26.67;;;;;;;2.67;94.87;100957.06;5011318;28;20053;-58
2022/11/19 06:31:32;;;;;;;37.55;26.48;;;;;;;2.60;94.82;100961.03;5019054;28;20076;-59
2022/11/19 06:33:58;;;;;;;38.33;27.88;;;;;;;2.53;94.82;100961.47;5014544;28;20045;-59
2022/11/19 06:36:23;;;;;;;38.67;28.00;;;;;;;2.60;93.00;100976.75;5019291;28;20095;-58
2022/11/19 06:38:49;;;;;;;37.30;26.95;;;;;;;2.48;94.51;100973.22;5022097;28;20053;-57
2022/11/19 06:41:15;;;;;;;38.60;26.80;;;;;;;2.47;94.01;100977.59;5013302;28;20107;-58
2022/11/19 06:43:40;;;;;;;41.10;28.25;;;;;;;2.46;94.83;100981.16;5022375;28;20144;-57
2022/11/19 06:46:05;;;;;;;40.83;29.30;;;;;;;2.41;94.98;100971.00;5013348;28;20030;-58
2022/11/19 06:48:31;;;;;;;40.78;28.10;;;;;;;2.47;95.23;100972.34;5015252;28;20128;-58
2022/11/19 06:50:56;;;;;;;42.00;28.42;;;;;;;2.44;95.07;100972.59;5022091;28;20040;-58
2022/11/19 06:53:21;;;;;;;42.47;29.60;;;;;;;2.48;95.68;100976.69;5021663;28;20084;-59
2022/11/19 06:55:47;;;;;;;41.73;29.37;;;;;;;2.49;94.27;100980.97;5020894;28;20439;-60
2022/11/19 06:58:13;;;;;;;41.13;28.97;;;;;;;2.49;95.09;100980.97;5022373;28;20037;-57
2022/11/19 07:00:39;;;;;;;40.42;28.65;;;;;;;2.45;94.45;100987.34;5016171;28;20064;-57
2022/11/19 07:03:05;;;;;;;43.80;29.97;;;;;;;2.45;94.67;100987.34;5020310;28;20877;-58
2022/11/19 07:05:33;;;;;;;40.80;27.57;;;;;;;2.43;94.87;100986.63;5018355;28;20033;-58
2022/11/19 07:07:59;;;;;;;41.70;29.83;;;;;;;2.39;94.58;100991.22;5022437;28;20030;-58
2022/11/19 07:10:24;;;;;;;41.10;27.87;;;;;;;2.43;95.28;100997.09;5015686;28;20037;-57
2022/11/19 07:12:49;;;;;;;42.67;29.58;;;;;;;2.36;95.29;100996.66;5007753;28;20061;-60
2022/11/19 07:15:15;;;;;;;41.42;28.95;;;;;;;2.39;94.51;100999.06;5009826;28;20030;-58
2022/11/19 07:17:41;;;;;;;42.17;28.97;;;;;;;2.44;94.58;101004.00;5015403;28;20139;-57
2022/11/19 07:20:07;;;;;;;43.17;29.90;;;;;;;2.41;93.91;101004.19;5023141;28;20078;-59
2022/11/19 07:22:32;;;;;;;44.17;28.73;;;;;;;2.43;92.30;101012.78;5019862;28;20044;-57
2022/11/19 07:24:58;;;;;;;42.50;27.67;;;;;;;2.29;90.83;101017.16;5022359;28;20021;-57
2022/11/19 07:27:23;;;;;;;44.87;29.60;;;;;;;2.24;92.15;101008.81;5015636;28;20429;-58
2022/11/19 07:29:48;;;;;;;45.63;30.37;;;;;;;2.15;92.50;101010.25;5016157;28;20026;-58
2022/11/19 07:32:13;;;;;;;42.70;28.90;;;;;;;2.13;92.32;101027.00;5016271;28;20029;-57
2022/11/19 07:34:39;;;;;;;44.70;30.37;;;;;;;2.11;91.36;101023.63;5023901;28;20108;-58
2022/11/19 07:37:04;;;;;;;44.20;28.30;;;;;;;2.10;91.95;101022.81;5006990;28;20030;-59
2022/11/19 07:39:30;;;;;;;44.37;29.50;;;;;;;2.05;91.88;101024.03;5015700;28;20100;-57
2022/11/19 07:44:39;;;;;;;43.77;28.67;;;;;;;2.10;91.06;101033.25;5018831;28;20068;-59
2022/11/19 07:47:06;;;;;;;44.83;29.13;;;;;;;2.07;92.23;101038.69;5017079;28;20061;-58
2022/11/19 07:49:31;;;;;;;45.37;28.20;;;;;;;2.09;90.91;101036.81;5009350;28;20033;-57
2022/11/19 07:51:56;;;;;;;48.90;29.37;;;;;;;2.04;90.87;101045.91;5012351;28;20053;-57
2022/11/19 07:54:22;;;;;;;47.77;29.40;;;;;;;2.00;91.76;101038.25;5017643;28;20864;-59
2022/11/19 07:56:47;;;;;;;47.53;29.97;;;;;;;2.06;91.44;101042.25;5020160;28;20038;-57
2022/11/19 07:59:12;;;;;;;45.67;29.27;;;;;;;2.03;91.62;101046.84;5022661;28;20025;-57
2022/11/19 08:01:37;;;;;;;45.40;29.17;;;;;;;2.04;91.21;101045.91;5022671;28;20064;-58
2022/11/19 08:04:04;;;;;;;45.43;28.93;;;;;;;1.99;92.15;101043.59;5013335;28;20048;-58
2022/11/19 08:06:29;;;;;;;47.40;28.83;;;;;;;2.03;91.26;101044.22;5021626;28;20039;-57
2022/11/19 08:08:56;;;;;;;43.53;29.03;;;;;;;2.04;92.72;101045.91;5008643;28;20351;-58
2022/11/19 08:11:21;;;;;;;43.83;28.73;;;;;;;2.07;91.53;101058.78;5008559;28;20993;-58
2022/11/19 08:13:47;;;;;;;44.87;28.90;;;;;;;2.09;91.57;101062.13;5008547;28;20027;-58
2022/11/19 08:19:01;;;;;;;45.90;29.30;;;;;;;2.13;90.56;101063.63;5013480;28;20049;-57
2022/11/19 08:21:26;;;;;;;45.17;29.97;;;;;;;2.15;91.69;101056.50;5012479;28;20069;-57
2022/11/19 08:23:52;;;;;;;46.33;29.73;;;;;;;2.13;92.17;101058.38;5019572;28;20058;-58
2022/11/19 08:26:17;;;;;;;46.07;29.40;;;;;;;2.22;91.43;101068.22;5011968;28;20042;-57
2022/11/19 08:28:43;;;;;;;41.87;27.93;;;;;;;2.26;90.00;101059.25;5014256;28;20537;-57
2022/11/19 08:31:08;;;;;;;43.80;29.27;;;;;;;2.16;91.05;101073.88;5013618;28;20026;-58
2022/11/19 08:33:35;;;;;;;43.73;28.93;;;;;;;2.14;90.19;101071.34;5008028;28;20401;-58
2022/11/19 08:36:01;;;;;;;41.20;28.53;;;;;;;2.11;90.20;101073.31;5014358;28;20030;-57
2022/11/19 08:38:26;;;;;;;43.43;27.97;;;;;;;2.16;90.24;101071.25;5010816;28;20119;-57
2022/11/19 08:42:58;;;;;;;44.23;29.37;;;;;;;2.15;90.04;101083.50;5017010;28;20476;-58
2022/11/19 08:43:38;;;;;;;44.13;28.93;;;;;;;2.19;90.01;101068.44;5013433;28;20064;-57
2022/11/19 08:46:04;;;;;;;42.73;28.57;;;;;;;2.13;89.46;101071.47;5015049;28;20062;-58
2022/11/19 08:48:29;;;;;;;44.43;29.87;;;;;;;2.08;90.54;101076.16;5016479;28;20369;-57
2022/11/19 08:50:55;;;;;;;46.55;29.60;;;;;;;2.08;90.88;101076.16;5012274;28;20018;-57
2022/11/19 08:53:20;;;;;;;46.47;29.80;;;;;;;2.17;90.10;101080.78;5016156;28;20408;-57
2022/11/19 08:55:49;;;;;;;45.27;29.57;;;;;;;2.21;90.32;101090.09;5015174;28;20068;-56
2022/11/19 08:58:15;;;;;;;44.63;29.37;;;;;;;2.19;89.88;101086.78;5012751;28;20022;-58
2022/11/19 09:00:40;;;;;;;42.87;28.67;;;;;;;2.18;88.45;101087.72;5012274;28;20029;-58
2022/11/19 09:03:05;;;;;;;44.10;29.87;;;;;;;2.13;89.10;101085.38;5018226;28;20125;-58
2022/11/19 09:05:31;;;;;;;43.13;28.63;;;;;;;2.09;89.44;101088.28;5014107;28;20026;-58
2022/11/19 09:07:56;;;;;;;42.07;27.70;;;;;;;2.10;88.57;101089.97;5015682;28;20036;-57
2022/11/19 09:10:21;;;;;;;46.07;28.83;;;;;;;2.12;89.56;101093.34;5007411;28;20038;-57
2022/11/19 09:12:48;;;;;;;43.50;28.30;;;;;;;2.15;89.59;101098.38;5009961;28;20044;-57
2022/11/19 09:15:13;;;;;;;44.00;29.87;;;;;;;2.17;90.15;101096.47;5011949;28;20037;-57
2022/11/19 09:17:38;;;;;;;42.90;28.57;;;;;;;2.16;89.98;101097.41;5016099;28;20025;-58
2022/11/19 09:20:04;;;;;;;42.20;27.57;;;;;;;2.16;89.23;101100.03;5016229;28;20481;-61
2022/11/19 09:22:30;;;;;;;42.03;28.13;;;;;;;2.12;89.42;101103.81;5015016;28;20028;-57
2022/11/19 09:24:56;;;;;;;43.80;27.73;;;;;;;2.12;88.79;101112.47;5013778;28;20025;-59
2022/11/19 09:27:21;;;;;;;43.03;27.50;;;;;;;2.12;88.64;101109.03;5018451;28;20034;-58
2022/11/19 09:29:46;;;;;;;40.03;27.00;;;;;;;2.09;89.18;101111.84;5010213;28;20458;-56
2022/11/19 09:32:12;;;;;;;42.10;27.60;;;;;;;2.08;89.52;101116.22;5011030;28;20418;-57
2022/11/19 09:34:39;;;;;;;43.10;28.47;;;;;;;2.10;90.00;101116.13;5018720;28;21043;-57
2022/11/19 09:37:06;;;;;;;42.10;26.97;;;;;;;2.12;89.46;101114.28;5018506;28;20547;-59
2022/11/19 09:39:31;;;;;;;41.40;26.63;;;;;;;2.15;88.28;101129.75;5015148;28;20126;-58
2022/11/19 09:42:02;;;;;;;44.53;27.20;;;;;;;2.14;89.06;101134.13;5020957;28;20540;-59
2022/11/19 09:44:30;;;;;;;42.10;26.20;;;;;;;2.15;89.23;101128.00;5022983;28;20033;-59
2022/11/19 09:47:05;;;;;;;42.13;26.80;;;;;;;2.17;87.77;101127.88;5018433;28;20087;-62
2022/11/19 09:49:41;;;;;;;43.30;27.63;;;;;;;2.07;88.44;101142.50;5013076;28;20049;-61
2022/11/19 09:52:12;;;;;;;42.37;27.40;;;;;;;2.01;87.87;101149.81;5013008;28;20991;-59
2022/11/19 09:54:47;;;;;;;43.73;28.40;;;;;;;2.00;88.76;101145.50;5024701;28;20052;-58
2022/11/19 09:57:20;;;;;;;40.10;26.27;;;;;;;2.00;89.29;101155.13;5021434;28;20037;-59
2022/11/19 09:59:48;;;;;;;41.03;26.57;;;;;;;2.00;88.54;101153.38;5014311;28;20046;-59
2022/11/19 10:02:19;;;;;;;40.40;25.97;;;;;;;2.04;88.35;101148.78;5021291;28;20033;-58
2022/11/19 10:04:46;;;;;;;40.97;26.77;;;;;;;2.00;87.97;101155.13;5020822;28;20871;-58
2022/11/19 10:07:18;;;;;;;40.63;25.70;;;;;;;2.05;88.42;101154.81;5017107;28;20029;-60
2022/11/19 10:10:05;;;;;;;44.35;25.83;;;;;;;2.05;87.69;101160.91;5023075;28;20033;-59
2022/11/19 10:13:10;;;;;;;43.43;25.77;;;;;;;2.00;88.36;101149.91;5010611;28;20497;-59
2022/11/19 10:15:54;;;;;;;40.57;25.60;;;;;;;1.98;88.84;101155.22;5012351;28;20049;-59
2022/11/19 10:18:40;;;;;;;39.37;26.03;;;;;;;2.04;88.20;101163.63;5018947;28;20488;-60
2022/11/19 10:21:28;;;;;;;39.10;24.83;;;;;;;2.05;89.02;101160.06;5013107;28;20029;-56
2022/11/19 10:23:59;;;;;;;43.10;25.80;;;;;;;2.08;87.20;101173.78;5013895;28;20041;-57
2022/11/19 10:26:39;;;;;;;43.83;25.73;;;;;;;1.96;87.42;101167.56;5021413;28;20056;-52
2022/11/19 10:29:18;;;;;;;42.60;25.97;;;;;;;1.93;87.95;101167.75;5017519;28;20037;-53
2022/11/19 10:31:48;;;;;;;39.87;25.50;;;;;;;1.94;87.49;101173.81;5012413;28;20038;-51
2022/11/19 10:34:36;;;;;;;39.73;25.63;;;;;;;2.16;88.57;101173.28;5016803;28;20504;-58
2022/11/19 10:37:13;;;;;;;42.77;26.47;;;;;;;2.01;87.73;101175.97;5012226;28;20033;-59
2022/11/19 10:39:49;;;;;;;41.97;27.43;;;;;;;2.00;87.88;101179.53;5020377;28;20531;-59
2022/11/19 10:42:32;;;;;;;39.37;24.53;;;;;;;2.00;86.37;101184.75;5018928;28;20068;-58
2022/11/19 10:45:02;;;;;;;41.15;24.58;;;;;;;1.92;87.43;101171.31;5014328;28;20297;-58
2022/11/19 10:47:38;;;;;;;38.77;24.60;;;;;;;1.94;86.98;101179.91;5010833;28;20068;-58
2022/11/19 10:50:04;;;;;;;39.53;24.90;;;;;;;1.94;86.86;101182.53;5018760;28;20121;-59
2022/11/19 10:52:42;;;;;;;40.37;24.80;;;;;;;1.93;86.75;101172.97;5011720;28;20037;-58
2022/11/19 10:55:22;;;;;;;42.60;25.27;;;;;;;2.01;86.79;101169.88;5018990;28;20117;-57
2022/11/19 10:57:49;;;;;;;40.33;25.10;;;;;;;1.86;87.19;101176.91;5013089;28;20044;-58
2022/11/19 11:00:16;;;;;;;41.00;24.40;;;;;;;1.81;86.56;101168.50;5020570;28;20381;-58
2022/11/19 11:02:45;;;;;;;39.27;24.37;;;;;;;1.82;86.05;101180.69;5014847;28;20433;-57
2022/11/19 11:05:14;;;;;;;41.37;25.30;;;;;;;1.81;87.76;101184.22;5015618;28;20148;-57
2022/11/19 11:07:50;;;;;;;38.63;23.73;;;;;;;1.92;85.88;101180.94;5020154;28;20036;-58
2022/11/19 11:10:29;;;;;;;36.10;23.03;;;;;;;1.83;86.64;101182.34;5016392;28;20079;-57
2022/11/19 11:15:51;;;;;;;38.43;24.43;;;;;;;1.81;87.01;101178.97;5017554;28;20872;-57
2022/11/19 11:18:17;;;;;;;38.60;23.47;;;;;;;1.84;86.93;101173.56;5018144;28;20033;-58
2022/11/19 11:20:48;;;;;;;36.80;22.47;;;;;;;1.92;85.50;101168.69;5017932;28;20037;-57
2022/11/19 11:23:17;;;;;;;34.87;22.77;;;;;;;1.86;85.86;101172.53;5018941;28;20124;-57
2022/11/19 11:25:53;;;;;;;36.83;23.17;;;;;;;1.86;85.94;101171.69;5015508;28;20536;-58
2022/11/19 11:28:21;;;;;;;33.97;20.97;;;;;;;1.88;85.85;101169.84;5018109;28;20037;-58
2022/11/19 11:30:53;;;;;;;37.40;22.23;;;;;;;1.90;85.31;101173.19;5013825;28;20057;-57
2022/11/19 11:33:35;;;;;;;35.13;22.37;;;;;;;1.85;86.41;101168.25;5011861;28;20025;-58
2022/11/19 11:36:13;;;;;;;33.93;22.53;;;;;;;1.87;86.55;101162.91;5017140;28;20055;-60
2022/11/19 11:38:45;;;;;;;32.57;21.60;;;;;;;1.93;87.54;101162.50;5014252;28;20064;-60
2022/11/19 11:41:15;;;;;;;33.03;20.10;;;;;;;1.92;85.60;101160.00;5006620;28;20036;-60